createdAt,value
2023-03-16T00:03:45.916Z,95302.00
2023-03-16T00:07:45.886Z,95304.00
2023-03-16T00:11:45.854Z,95304.00
2023-03-16T00:15:45.844Z,95297.00
2023-03-16T00:19:45.757Z,95304.00
2023-03-16T00:23:45.714Z,95308.00
2023-03-16T00:27:45.730Z,95306.00
2023-03-16T00:31:45.945Z,95312.00
2023-03-16T00:35:46.128Z,95308.00
2023-03-16T00:39:46.257Z,95308.00
2023-03-16T00:43:46.224Z,95306.00
2023-03-16T00:47:46.197Z,95310.00
2023-03-16T00:51:46.153Z,95312.00
2023-03-16T00:55:46.136Z,95312.00
2023-03-16T00:59:46.066Z,95308.00
2023-03-16T01:03:46.031Z,95302.00
2023-03-16T01:07:45.984Z,95302.00
2023-03-16T01:11:45.984Z,95300.00
2023-03-16T01:15:45.910Z,95295.00
2023-03-16T01:19:45.942Z,95291.00
2023-03-16T01:23:45.983Z,95300.00
2023-03-16T01:27:46.042Z,95304.00
2023-03-16T01:31:46.198Z,95306.00
2023-03-16T01:35:46.374Z,95304.00
2023-03-16T01:39:46.558Z,95304.00
2023-03-16T01:43:46.676Z,95308.00
2023-03-16T01:47:46.820Z,95310.00
2023-03-16T01:51:47.024Z,95306.00
2023-03-16T01:55:47.234Z,95306.00
2023-03-16T01:59:47.320Z,95304.00
2023-03-16T02:03:47.445Z,95306.00
2023-03-16T02:07:47.579Z,95306.00
2023-03-16T02:11:47.734Z,95308.00
2023-03-16T02:15:47.847Z,95310.00
2023-03-16T02:19:47.922Z,95306.00
2023-03-16T02:23:48.039Z,95308.00
2023-03-16T02:27:48.080Z,95304.00
2023-03-16T02:31:48.142Z,95310.00
2023-03-16T02:35:48.298Z,95310.00
2023-03-16T02:39:48.304Z,95310.00
2023-03-16T02:43:48.372Z,95316.00
2023-03-16T02:47:48.430Z,95312.00
2023-03-16T02:51:48.472Z,95312.00
2023-03-16T02:55:48.475Z,95312.00
2023-03-16T02:59:48.462Z,95314.00
2023-03-16T03:03:48.486Z,95318.00
2023-03-16T03:07:48.541Z,95318.00
2023-03-16T03:11:48.581Z,95318.00
2023-03-16T03:15:48.694Z,95322.00
2023-03-16T03:19:48.830Z,95326.00
2023-03-16T03:23:49.020Z,95328.00
2023-03-16T03:27:49.025Z,95334.00
2023-03-16T03:31:49.121Z,95336.00
2023-03-16T03:35:49.300Z,95338.00
2023-03-16T03:39:49.467Z,95336.00
2023-03-16T03:43:49.458Z,95330.00
2023-03-16T03:47:49.503Z,95330.00
2023-03-16T03:51:49.590Z,95328.00
2023-03-16T03:55:49.626Z,95332.00
2023-03-16T03:59:49.673Z,95334.00
2023-03-16T04:03:49.726Z,95336.00
2023-03-16T04:07:49.759Z,95332.00
2023-03-16T04:11:49.791Z,95330.00
2023-03-16T04:15:49.858Z,95334.00
2023-03-16T04:19:49.935Z,95332.00
2023-03-16T04:23:50.014Z,95330.00
2023-03-16T04:27:50.031Z,95330.00
2023-03-16T04:31:50.017Z,95332.00
2023-03-16T04:35:50.067Z,95326.00
2023-03-16T04:39:50.006Z,95326.00
2023-03-16T04:43:50.021Z,95326.00
2023-03-16T04:47:49.963Z,95324.00
2023-03-16T04:51:49.958Z,95320.00
2023-03-16T04:55:49.977Z,95318.00
2023-03-16T04:59:49.930Z,95312.00
2023-03-16T05:03:49.904Z,95318.00
2023-03-16T05:07:49.923Z,95318.00
2023-03-16T05:11:49.902Z,95322.00
2023-03-16T05:15:49.949Z,95322.00
2023-03-16T05:19:49.867Z,95328.00
2023-03-16T05:23:49.856Z,95330.00
2023-03-16T05:27:49.844Z,95336.00
2023-03-16T05:31:49.842Z,95334.00
2023-03-16T05:35:49.867Z,95338.00
2023-03-16T05:39:49.830Z,95334.00
2023-03-16T05:43:49.816Z,95334.00
2023-03-16T05:47:49.836Z,95338.00
2023-03-16T05:51:49.854Z,95340.00
2023-03-16T05:55:49.782Z,95338.00
2023-03-16T05:59:49.759Z,95342.00
2023-03-16T06:03:49.894Z,95338.00
2023-03-16T06:07:49.757Z,95340.00
2023-03-16T06:11:49.740Z,95340.00
2023-03-16T06:15:49.872Z,95342.00
2023-03-16T06:19:49.960Z,95349.00
2023-03-16T06:23:50.072Z,95351.00
2023-03-16T06:27:50.269Z,95355.00
2023-03-16T06:31:50.301Z,95359.00
2023-03-16T06:35:50.259Z,95357.00
2023-03-16T06:39:50.492Z,95355.00
2023-03-16T06:43:50.556Z,95361.00
2023-03-16T06:47:50.116Z,95363.00
2023-03-16T06:51:50.527Z,95359.00
2023-03-16T06:55:50.035Z,95359.00
2023-03-16T06:59:49.982Z,95357.00
2023-03-16T07:03:50.064Z,95355.00
2023-03-16T07:07:49.956Z,95363.00
2023-03-16T07:11:49.898Z,95357.00
2023-03-16T07:15:50.036Z,95357.00
2023-03-16T07:19:50.027Z,95355.00
2023-03-16T07:23:49.801Z,95359.00
2023-03-16T07:27:50.042Z,95347.00
2023-03-16T07:31:49.753Z,95349.00
2023-03-16T07:35:49.724Z,95349.00
2023-03-16T07:39:50.042Z,95361.00
2023-03-16T07:43:49.618Z,95359.00
2023-03-16T07:47:50.055Z,95359.00
2023-03-16T07:51:50.056Z,95359.00
2023-03-16T07:55:49.540Z,95353.00
2023-03-16T07:59:49.534Z,95351.00
2023-03-16T08:03:49.739Z,95355.00
2023-03-16T08:07:49.804Z,95355.00
2023-03-16T08:11:50.042Z,95349.00
2023-03-16T08:15:50.144Z,95347.00
2023-03-16T08:19:50.239Z,95345.00
2023-03-16T08:23:50.566Z,95340.00
2023-03-16T08:27:50.499Z,95336.00
2023-03-16T08:31:51.046Z,95334.00
2023-03-16T08:35:50.938Z,95332.00
2023-03-16T08:39:51.111Z,95326.00
2023-03-16T08:43:52.362Z,95330.00
2023-03-16T08:47:51.565Z,95332.00
2023-03-16T08:51:51.199Z,95328.00
2023-03-16T08:55:51.587Z,95322.00
2023-03-16T08:59:51.428Z,95318.00
2023-03-16T09:03:51.559Z,95312.00
2023-03-16T09:07:52.078Z,95308.00
2023-03-16T09:11:51.646Z,95304.00
2023-03-16T09:15:52.100Z,95306.00
2023-03-16T09:19:53.846Z,95304.00
2023-03-16T09:23:51.805Z,95298.00
2023-03-16T09:27:51.696Z,95297.00
2023-03-16T09:31:52.137Z,95291.00
2023-03-16T09:35:52.151Z,95287.00
2023-03-16T09:39:55.850Z,95285.00
2023-03-16T09:43:52.578Z,95281.00
2023-03-16T09:47:51.685Z,95283.00
2023-03-16T09:51:52.098Z,95275.00
2023-03-16T09:55:52.083Z,95273.00
2023-03-16T09:59:51.618Z,95269.00
2023-03-16T10:03:51.701Z,95263.00
2023-03-16T10:07:51.631Z,95257.00
2023-03-16T10:11:52.075Z,95253.00
2023-03-16T10:15:51.661Z,95248.00
2023-03-16T10:19:51.619Z,95246.00
2023-03-16T10:23:52.072Z,95238.00
2023-03-16T10:27:51.611Z,95230.00
2023-03-16T10:31:51.607Z,95226.00
2023-03-16T10:35:51.612Z,95222.00
2023-03-16T10:39:51.651Z,95218.00
2023-03-16T10:43:51.611Z,95210.00
2023-03-16T10:47:51.622Z,95204.00
2023-03-16T10:51:51.611Z,95200.00
2023-03-16T10:55:51.530Z,95193.00
2023-03-16T10:59:51.499Z,95189.00
2023-03-16T11:03:51.633Z,95187.00
2023-03-16T11:07:51.450Z,95183.00
2023-03-16T11:11:51.417Z,95181.00
2023-03-16T11:15:51.405Z,95177.00
2023-03-16T11:19:51.348Z,95171.00
2023-03-16T11:23:51.335Z,95165.00
2023-03-16T11:27:51.311Z,95151.00
2023-03-16T11:31:51.304Z,95134.00
2023-03-16T11:35:58.812Z,95130.00
2023-03-16T11:39:52.632Z,95114.00
2023-03-16T11:43:51.655Z,95108.00
2023-03-16T11:47:51.167Z,95106.00
2023-03-16T11:51:51.126Z,95102.00
2023-03-16T11:55:51.176Z,95095.00
2023-03-16T12:00:00.606Z,95089.00
2023-03-16T12:03:52.385Z,95083.00
2023-03-16T12:07:51.289Z,95073.00
2023-03-16T12:11:51.282Z,95065.00
2023-03-16T12:15:51.437Z,95057.00
2023-03-16T12:19:51.368Z,95048.00
2023-03-16T12:23:51.478Z,95040.00
2023-03-16T12:27:51.621Z,95036.00
2023-03-16T12:31:52.188Z,95030.00
2023-03-16T12:35:52.167Z,95026.00
2023-03-16T12:39:51.929Z,95020.00
2023-03-16T12:43:52.057Z,95014.00
2023-03-16T12:47:52.177Z,95002.00
2023-03-16T12:51:52.262Z,94997.00
2023-03-16T12:55:52.469Z,94991.00
2023-03-16T12:59:52.664Z,94987.00
2023-03-16T13:03:52.746Z,94985.00
2023-03-16T13:07:53.148Z,94981.00
2023-03-16T13:11:52.945Z,94979.00
2023-03-16T13:15:53.029Z,94973.00
2023-03-16T13:19:53.096Z,94971.00
2023-03-16T13:23:53.653Z,94969.00
2023-03-16T13:27:53.681Z,94959.00
2023-03-16T13:31:53.640Z,94959.00
2023-03-16T13:35:53.746Z,94954.00
2023-03-16T13:39:54.169Z,94952.00
2023-03-16T13:43:53.809Z,94952.00
2023-03-16T13:47:53.826Z,94946.00
2023-03-16T13:51:54.158Z,94942.00
2023-03-16T13:55:53.941Z,94938.00
2023-03-16T13:59:54.025Z,94942.00
2023-03-16T14:03:54.108Z,94944.00
2023-03-16T14:07:54.202Z,94940.00
2023-03-16T14:11:54.689Z,94936.00
2023-03-16T14:15:54.718Z,94934.00
2023-03-16T14:19:54.694Z,94936.00
2023-03-16T14:23:54.486Z,94934.00
2023-03-16T14:27:54.500Z,94936.00
2023-03-16T14:31:54.510Z,94934.00
2023-03-16T14:35:54.510Z,94932.00
2023-03-16T14:39:54.458Z,94928.00
2023-03-16T14:43:54.404Z,94926.00
2023-03-16T14:47:54.396Z,94928.00
2023-03-16T14:51:54.434Z,94930.00
2023-03-16T14:55:54.689Z,94932.00
2023-03-16T14:59:54.505Z,94930.00
2023-03-16T15:03:54.354Z,94926.00
2023-03-16T15:07:54.945Z,94926.00
2023-03-16T15:11:54.729Z,94926.00
2023-03-16T15:15:54.789Z,94922.00
2023-03-16T15:19:54.413Z,94918.00
2023-03-16T15:23:54.478Z,94916.00
2023-03-16T15:27:54.427Z,94922.00
2023-03-16T15:31:55.003Z,94926.00
2023-03-16T15:35:54.422Z,94920.00
2023-03-16T15:39:54.358Z,94920.00
2023-03-16T15:43:54.316Z,94920.00
2023-03-16T15:47:54.345Z,94922.00
2023-03-16T15:51:54.254Z,94914.00
2023-03-16T15:55:54.256Z,94918.00
2023-03-16T15:59:54.236Z,94920.00
2023-03-16T16:03:54.355Z,94924.00
2023-03-16T16:07:54.217Z,94922.00
2023-03-16T16:11:54.214Z,94920.00
2023-03-16T16:15:54.747Z,94922.00
2023-03-16T16:19:54.193Z,94928.00
2023-03-16T16:23:54.212Z,94928.00
2023-03-16T16:27:54.230Z,94928.00
2023-03-16T16:31:54.215Z,94934.00
2023-03-16T16:35:54.214Z,94940.00
2023-03-16T16:39:54.119Z,94938.00
2023-03-16T16:43:54.118Z,94942.00
2023-03-16T16:47:54.087Z,94944.00
2023-03-16T16:51:54.076Z,94952.00
2023-03-16T16:55:54.036Z,94952.00
2023-03-16T16:59:54.039Z,94957.00
2023-03-16T17:03:54.023Z,94963.00
2023-03-16T17:07:54.011Z,94967.00
2023-03-16T17:11:53.971Z,94973.00
2023-03-16T17:15:54.014Z,94985.00
2023-03-16T17:19:53.965Z,94989.00
2023-03-16T17:23:53.930Z,94989.00
2023-03-16T17:27:53.977Z,94995.00
2023-03-16T17:31:53.940Z,95002.00
2023-03-16T17:35:54.070Z,95008.00
2023-03-16T17:39:56.266Z,95016.00
2023-03-16T17:43:53.908Z,95020.00
2023-03-16T17:47:53.893Z,95032.00
2023-03-16T17:51:53.865Z,95036.00
2023-03-16T17:55:53.798Z,95036.00
2023-03-16T17:59:53.766Z,95042.00
2023-03-16T18:03:53.792Z,95044.00
2023-03-16T18:07:53.741Z,95044.00
2023-03-16T18:11:53.661Z,95049.00
2023-03-16T18:15:53.615Z,95053.00
2023-03-16T18:19:53.613Z,95057.00
2023-03-16T18:23:53.518Z,95057.00
2023-03-16T18:27:53.541Z,95059.00
2023-03-16T18:31:53.453Z,95067.00
2023-03-16T18:35:53.470Z,95073.00
2023-03-16T18:39:53.404Z,95073.00
2023-03-16T18:43:53.392Z,95075.00
2023-03-16T18:47:53.339Z,95075.00
2023-03-16T18:51:53.287Z,95075.00
2023-03-16T18:55:55.086Z,95077.00
2023-03-16T18:59:53.196Z,95081.00
2023-03-16T19:03:53.174Z,95083.00
2023-03-16T19:07:53.108Z,95085.00
2023-03-16T19:11:53.113Z,95087.00
2023-03-16T19:15:53.052Z,95091.00
2023-03-16T19:19:53.018Z,95096.00
2023-03-16T19:23:52.991Z,95096.00
2023-03-16T19:27:52.929Z,95098.00
2023-03-16T19:31:52.910Z,95106.00
2023-03-16T19:35:53.285Z,95106.00
2023-03-16T19:39:52.817Z,95108.00
2023-03-16T19:43:52.762Z,95114.00
2023-03-16T19:47:52.721Z,95112.00
2023-03-16T19:51:52.728Z,95114.00
2023-03-16T19:55:52.654Z,95112.00
2023-03-16T19:59:52.651Z,95118.00
2023-03-16T20:03:52.598Z,95116.00
2023-03-16T20:07:52.562Z,95116.00
2023-03-16T20:11:52.523Z,95124.00
2023-03-16T20:15:52.478Z,95124.00
2023-03-16T20:19:52.455Z,95128.00
2023-03-16T20:23:52.444Z,95130.00
2023-03-16T20:27:52.368Z,95132.00
2023-03-16T20:31:52.328Z,95132.00
2023-03-16T20:35:52.278Z,95136.00
2023-03-16T20:39:52.294Z,95142.00
2023-03-16T20:43:52.249Z,95151.00
2023-03-16T20:47:52.311Z,95155.00
2023-03-16T20:51:52.363Z,95155.00
2023-03-16T20:55:52.406Z,95163.00
2023-03-16T20:59:52.484Z,95161.00
2023-03-16T21:03:52.817Z,95165.00
2023-03-16T21:07:52.636Z,95165.00
2023-03-16T21:11:52.725Z,95171.00
2023-03-16T21:15:52.843Z,95173.00
2023-03-16T21:19:52.892Z,95167.00
2023-03-16T21:23:52.980Z,95169.00
2023-03-16T21:27:53.129Z,95177.00
2023-03-16T21:31:53.214Z,95175.00
2023-03-16T21:35:53.392Z,95171.00
2023-03-16T21:39:53.408Z,95185.00
2023-03-16T21:43:53.516Z,95183.00
2023-03-16T21:47:53.625Z,95171.00
2023-03-16T21:51:53.744Z,95179.00
2023-03-16T21:55:53.882Z,95171.00
2023-03-16T21:59:53.981Z,95173.00
2023-03-16T22:03:54.082Z,95173.00
2023-03-16T22:07:54.174Z,95171.00
2023-03-16T22:11:54.291Z,95169.00
2023-03-16T22:15:54.411Z,95165.00
2023-03-16T22:19:54.517Z,95177.00
2023-03-16T22:23:54.619Z,95163.00
2023-03-16T22:27:54.808Z,95165.00
2023-03-16T22:31:55.019Z,95171.00
2023-03-16T22:35:55.196Z,95161.00
2023-03-16T22:39:55.236Z,95161.00
2023-03-16T22:43:55.405Z,95161.00
2023-03-16T22:47:55.491Z,95165.00
2023-03-16T22:51:55.582Z,95157.00
2023-03-16T22:55:55.718Z,95157.00
2023-03-16T22:59:55.842Z,95149.00
2023-03-16T23:03:56.024Z,95142.00
2023-03-16T23:07:56.119Z,95151.00
2023-03-16T23:11:56.239Z,95142.00
2023-03-16T23:15:56.391Z,95140.00
2023-03-16T23:19:56.444Z,95138.00
2023-03-16T23:24:03.610Z,95142.00
2023-03-16T23:27:57.561Z,95136.00
2023-03-16T23:31:56.582Z,95142.00
2023-03-16T23:35:56.532Z,95136.00
2023-03-16T23:39:56.514Z,95138.00
2023-03-16T23:43:56.647Z,95136.00
2023-03-16T23:47:56.827Z,95138.00
2023-03-16T23:51:57.017Z,95136.00
2023-03-16T23:55:57.114Z,95132.00
2023-03-16T23:59:57.276Z,95122.00
